createdAt,value
2017-09-19T00:00:07.442Z,81.92
2017-09-19T00:00:47.979Z,82.68
2017-09-19T00:01:28.562Z,82.78
2017-09-19T00:02:09.108Z,82.59
2017-09-19T00:02:49.636Z,82.4
2017-09-19T00:03:30.142Z,82.3
2017-09-19T00:04:10.697Z,82.68
2017-09-19T00:04:51.194Z,82.4
2017-09-19T00:05:31.717Z,82.49
2017-09-19T00:06:12.278Z,82.68
2017-09-19T00:06:52.836Z,82.59
2017-09-19T00:07:33.382Z,82.59
2017-09-19T00:08:13.940Z,83.03
2017-09-19T00:08:54.500Z,83.36
2017-09-19T00:09:35.026Z,83.45
2017-09-19T00:10:15.553Z,83.45
2017-09-19T00:10:56.112Z,83.06
2017-09-19T00:11:36.658Z,82.97
2017-09-19T00:12:17.209Z,82.87
2017-09-19T00:12:57.755Z,83.26
2017-09-19T00:13:38.330Z,83.36
2017-09-19T00:14:18.878Z,83.31
2017-09-19T00:14:59.431Z,83.64
2017-09-19T00:15:39.994Z,83.54
2017-09-19T00:16:20.546Z,83.64
2017-09-19T00:17:01.119Z,83.83
2017-09-19T00:17:41.746Z,83.73
2017-09-19T00:18:22.319Z,83.69
2017-09-19T00:19:02.838Z,83.83
2017-09-19T00:19:43.380Z,83.54
2017-09-19T00:20:23.918Z,83.06
2017-09-19T00:21:04.506Z,83.54
2017-09-19T00:21:45.031Z,83.73
2017-09-19T00:22:25.576Z,83.26
2017-09-19T00:23:06.157Z,83.83
2017-09-19T00:23:46.721Z,83.45
2017-09-19T00:24:27.280Z,83.83
2017-09-19T00:25:07.865Z,83.64
2017-09-19T00:25:48.427Z,83.64
2017-09-19T00:26:28.991Z,83.83
2017-09-19T00:27:09.574Z,83.93
2017-09-19T00:27:50.110Z,83.54
2017-09-19T00:28:30.668Z,83.93
2017-09-19T00:29:11.199Z,83.54
2017-09-19T00:29:51.756Z,83.73
2017-09-19T00:30:32.312Z,83.54
2017-09-19T00:31:12.869Z,83.54
2017-09-19T00:31:53.420Z,83.83
2017-09-19T00:32:33.948Z,83.54
2017-09-19T00:33:14.513Z,83.54
2017-09-19T00:33:55.053Z,83.54
2017-09-19T00:34:35.623Z,82.87
2017-09-19T00:35:16.177Z,83.06
2017-09-19T00:35:56.726Z,82.97
2017-09-19T00:36:37.320Z,83.36
2017-09-19T00:37:17.885Z,83.31
2017-09-19T00:37:58.478Z,83.31
2017-09-19T00:38:39.023Z,83.69
2017-09-19T00:39:19.576Z,83.89
2017-09-19T00:40:00.163Z,83.12
2017-09-19T00:40:40.746Z,83.6
2017-09-19T00:41:21.305Z,83.79
2017-09-19T00:42:01.871Z,83.03
2017-09-19T00:42:42.448Z,83.36
2017-09-19T00:43:22.990Z,82.83
2017-09-19T00:44:03.556Z,83.12
2017-09-19T00:44:44.093Z,83.5
2017-09-19T00:45:24.636Z,83.5
2017-09-19T00:46:05.181Z,83.79
2017-09-19T00:46:45.682Z,84.08
2017-09-19T00:47:26.254Z,83.4
2017-09-19T00:48:06.779Z,83.4
2017-09-19T00:48:47.315Z,83.89
2017-09-19T00:49:27.856Z,83.79
2017-09-19T00:50:08.412Z,83.89
2017-09-19T00:50:48.959Z,83.69
2017-09-19T00:51:29.512Z,84.46
2017-09-19T00:52:10.056Z,83.98
2017-09-19T00:52:50.609Z,83.89
2017-09-19T00:53:31.173Z,84.27
2017-09-19T00:54:11.738Z,84.84
2017-09-19T00:54:52.296Z,84.36
2017-09-19T00:55:32.819Z,84.46
2017-09-19T00:56:13.383Z,84.7
2017-09-19T00:56:53.925Z,84.65
2017-09-19T00:57:34.500Z,85.03
2017-09-19T00:58:15.033Z,84.75
2017-09-19T00:58:55.568Z,84.46
2017-09-19T00:59:36.118Z,84.75
2017-09-19T01:00:16.670Z,84.75
2017-09-19T01:00:57.213Z,84.27
2017-09-19T01:01:37.728Z,84.36
2017-09-19T01:02:18.289Z,84.84
2017-09-19T01:02:58.841Z,84.36
2017-09-19T01:03:39.413Z,83.89
2017-09-19T01:04:19.988Z,84.75
2017-09-19T01:05:00.521Z,83.79
2017-09-19T01:05:41.041Z,84.36
2017-09-19T01:06:21.579Z,84.17
2017-09-19T01:07:02.144Z,84.65
2017-09-19T01:07:42.659Z,83.31
2017-09-19T01:08:23.202Z,83.6
2017-09-19T01:09:03.734Z,84.5
2017-09-19T01:09:44.216Z,84.27
2017-09-19T01:10:24.735Z,84.27
2017-09-19T01:11:05.316Z,83.89
2017-09-19T01:11:45.846Z,84.27
2017-09-19T01:12:26.389Z,84.94
2017-09-19T01:13:06.926Z,83.98
2017-09-19T01:13:47.456Z,84.5
2017-09-19T01:14:27.991Z,84.36
2017-09-19T01:15:08.572Z,84.31
2017-09-19T01:15:49.101Z,83.98
2017-09-19T01:16:29.624Z,84.84
2017-09-19T01:17:10.156Z,84.46
2017-09-19T01:17:50.684Z,85.22
2017-09-19T01:18:31.253Z,83.93
2017-09-19T01:19:11.748Z,84.08
2017-09-19T01:19:52.309Z,84.08
2017-09-19T01:20:32.897Z,84.65
2017-09-19T01:21:13.436Z,84.75
2017-09-19T01:21:53.984Z,85.22
2017-09-19T01:22:34.456Z,84.94
2017-09-19T01:23:15.002Z,85.13
2017-09-19T01:23:55.586Z,84.46
2017-09-19T01:24:36.142Z,84.65
2017-09-19T01:25:16.655Z,84.94
2017-09-19T01:25:57.193Z,85.22
2017-09-19T01:26:37.751Z,85.03
2017-09-19T01:27:18.296Z,85.03
2017-09-19T01:27:58.822Z,85.51
2017-09-19T01:28:39.369Z,85.22
2017-09-19T01:29:19.870Z,85.22
2017-09-19T01:30:00.375Z,85.8
2017-09-19T01:30:40.910Z,85.99
2017-09-19T01:31:21.447Z,85.89
2017-09-19T01:32:02.003Z,86.08
2017-09-19T01:32:42.531Z,85.32
2017-09-19T01:33:23.089Z,85.8
2017-09-19T01:34:03.690Z,85.13
2017-09-19T01:34:44.239Z,85.22
2017-09-19T01:35:24.803Z,85.99
2017-09-19T01:36:05.319Z,85.22
2017-09-19T01:36:45.839Z,85.89
2017-09-19T01:37:26.342Z,85.99
2017-09-19T01:38:06.894Z,85.41
2017-09-19T01:38:47.438Z,85.41
2017-09-19T01:39:27.986Z,85.51
2017-09-19T01:40:08.511Z,86.08
2017-09-19T01:40:49.057Z,85.13
2017-09-19T01:41:29.602Z,84.94
2017-09-19T01:42:10.116Z,85.55
2017-09-19T01:42:50.655Z,85.32
2017-09-19T01:43:31.183Z,85.13
2017-09-19T01:44:11.717Z,84.94
2017-09-19T01:44:52.327Z,85.13
2017-09-19T01:45:32.883Z,85.61
2017-09-19T01:46:13.410Z,85.89
2017-09-19T01:46:53.937Z,85.55
2017-09-19T01:47:34.500Z,85.55
2017-09-19T01:48:15.062Z,85.36
2017-09-19T01:48:55.602Z,85.46
2017-09-19T01:49:36.166Z,85.8
2017-09-19T01:50:16.720Z,85.8
2017-09-19T01:50:57.279Z,85.61
2017-09-19T01:51:37.837Z,85.99
2017-09-19T01:52:18.390Z,85.89
2017-09-19T01:52:58.930Z,86.28
2017-09-19T01:53:39.488Z,86.28
2017-09-19T01:54:20.066Z,86.76
2017-09-19T01:55:00.602Z,86.28
2017-09-19T01:55:41.123Z,86.47
2017-09-19T01:56:21.672Z,86.47
2017-09-19T01:57:02.203Z,86.37
2017-09-19T01:57:42.753Z,86.08
2017-09-19T01:58:23.331Z,86.32
2017-09-19T01:59:03.882Z,86.18
2017-09-19T01:59:44.428Z,86.32
2017-09-19T02:00:24.997Z,86.32
2017-09-19T02:01:05.508Z,86.32
2017-09-19T02:01:46.081Z,86.08
2017-09-19T02:02:26.615Z,86.47
2017-09-19T02:03:07.145Z,86.51
2017-09-19T02:03:47.705Z,86.37
2017-09-19T02:04:28.247Z,86.7
2017-09-19T02:05:08.814Z,87.14
2017-09-19T02:05:49.337Z,87.14
2017-09-19T02:06:29.877Z,86.99
2017-09-19T02:07:10.438Z,87.14
2017-09-19T02:07:50.997Z,87.71
2017-09-19T02:08:31.502Z,87.62
2017-09-19T02:09:12.069Z,87.23
2017-09-19T02:09:52.613Z,87.62
2017-09-19T02:10:33.124Z,87.9
2017-09-19T02:11:13.669Z,88.19
2017-09-19T02:11:54.219Z,88.48
2017-09-19T02:12:34.789Z,88.67
2017-09-19T02:13:15.374Z,88.67
2017-09-19T02:13:55.926Z,88.19
2017-09-19T02:14:36.484Z,88.67
2017-09-19T02:15:17.005Z,89.34
2017-09-19T02:15:57.563Z,89.34
2017-09-19T02:16:38.090Z,90.1
2017-09-19T02:17:18.635Z,89.81
2017-09-19T02:17:59.350Z,90.1
2017-09-19T02:18:39.869Z,90.1
2017-09-19T02:19:20.427Z,90.01
2017-09-19T02:20:01.028Z,89.53
2017-09-19T02:20:41.584Z,89.72
2017-09-19T02:21:22.114Z,89.91
2017-09-19T02:22:02.717Z,89.81
2017-09-19T02:22:43.270Z,89.62
2017-09-19T02:23:23.800Z,89.34
2017-09-19T02:24:04.328Z,89.67
2017-09-19T02:24:44.884Z,90.01
2017-09-19T02:25:25.444Z,90.3
2017-09-19T02:26:06.031Z,90.16
2017-09-19T02:26:46.561Z,90.34
2017-09-19T02:27:27.095Z,90.39
2017-09-19T02:28:07.650Z,90.16
2017-09-19T02:28:48.350Z,89.96
2017-09-19T02:29:28.879Z,90.48
2017-09-19T02:30:09.411Z,90.58
2017-09-19T02:30:49.927Z,90.25
2017-09-19T02:31:30.477Z,91.02
2017-09-19T02:32:11.018Z,90.92
2017-09-19T02:32:51.553Z,90.92
2017-09-19T02:33:32.089Z,91.39
2017-09-19T02:34:12.635Z,91.06
2017-09-19T02:34:53.181Z,90.82
2017-09-19T02:35:33.742Z,91.2
2017-09-19T02:36:14.262Z,91.2
2017-09-19T02:36:54.844Z,91.11
2017-09-19T02:37:35.391Z,91.39
2017-09-19T02:38:15.941Z,91.78
2017-09-19T02:38:56.461Z,91.59
2017-09-19T02:39:37.030Z,91.59
2017-09-19T02:40:17.577Z,91.68
2017-09-19T02:40:58.099Z,91.49
2017-09-19T02:41:38.663Z,91.68
2017-09-19T02:42:19.221Z,91.39
2017-09-19T02:42:59.749Z,91.39
2017-09-19T02:43:40.306Z,91.59
2017-09-19T02:44:20.943Z,91.68
2017-09-19T02:45:01.538Z,91.39
2017-09-19T02:45:42.056Z,91.3
2017-09-19T02:46:22.588Z,91.49
2017-09-19T02:47:03.140Z,91.3
2017-09-19T02:47:43.699Z,91.11
2017-09-19T02:48:24.291Z,91.49
2017-09-19T02:49:04.841Z,91.39
2017-09-19T02:49:45.375Z,91.97
2017-09-19T02:50:25.997Z,91.49
2017-09-19T02:51:06.555Z,91.49
2017-09-19T02:51:47.109Z,91.44
2017-09-19T02:52:27.672Z,91.39
2017-09-19T02:53:08.215Z,91.39
2017-09-19T02:53:48.789Z,91.3
2017-09-19T02:54:29.336Z,91.2
2017-09-19T02:55:09.863Z,91.39
2017-09-19T02:55:50.412Z,91.49
2017-09-19T02:56:30.967Z,91.44
2017-09-19T02:57:11.522Z,91.78
2017-09-19T02:57:52.088Z,91.73
2017-09-19T02:58:32.650Z,91.39
2017-09-19T02:59:13.214Z,91.16
2017-09-19T02:59:53.766Z,90.53
2017-09-19T03:00:34.311Z,90.73
2017-09-19T03:01:14.840Z,91.59
2017-09-19T03:01:55.374Z,91.39
2017-09-19T03:02:35.925Z,91.59
2017-09-19T03:03:16.497Z,91.59
2017-09-19T03:03:57.109Z,91.59
2017-09-19T03:04:37.659Z,91.78
2017-09-19T03:05:18.200Z,91.39
2017-09-19T03:05:58.780Z,91.49
2017-09-19T03:06:39.332Z,91.49
2017-09-19T03:07:19.904Z,91.39
2017-09-19T03:08:00.464Z,92.07
2017-09-19T03:08:41.003Z,92.25
2017-09-19T03:09:21.563Z,91.78
2017-09-19T03:10:02.110Z,91.97
2017-09-19T03:10:42.653Z,91.59
2017-09-19T03:11:23.235Z,91.59
2017-09-19T03:12:03.750Z,91.39
2017-09-19T03:12:44.334Z,91.83
2017-09-19T03:13:24.838Z,91.73
2017-09-19T03:14:05.409Z,91.92
2017-09-19T03:14:45.954Z,91.73
2017-09-19T03:15:26.649Z,92.35
2017-09-19T03:16:07.212Z,92.07
2017-09-19T03:16:47.708Z,91.53
2017-09-19T03:17:28.283Z,92.11
2017-09-19T03:18:08.836Z,91.35
2017-09-19T03:18:49.385Z,91.44
2017-09-19T03:19:29.954Z,91.53
2017-09-19T03:20:10.514Z,91.53
2017-09-19T03:20:51.042Z,90.96
2017-09-19T03:21:31.558Z,90.96
2017-09-19T03:22:12.133Z,91.06
2017-09-19T03:22:52.635Z,90.96
2017-09-19T03:23:33.160Z,90.96
2017-09-19T03:24:13.665Z,90.58
2017-09-19T03:24:54.213Z,90.87
2017-09-19T03:25:34.908Z,90.87
2017-09-19T03:26:15.462Z,90.2
2017-09-19T03:26:55.987Z,90.44
2017-09-19T03:27:36.564Z,90.96
2017-09-19T03:28:17.142Z,91.06
2017-09-19T03:28:57.681Z,90.77
2017-09-19T03:29:38.248Z,90.87
2017-09-19T03:30:18.787Z,90.77
2017-09-19T03:30:59.363Z,90.01
2017-09-19T03:31:39.920Z,90.48
2017-09-19T03:32:20.483Z,90.3
2017-09-19T03:33:01.041Z,90.39
2017-09-19T03:33:41.605Z,90.44
2017-09-19T03:34:22.155Z,90.73
2017-09-19T03:35:02.716Z,90.92
2017-09-19T03:35:43.242Z,90.63
2017-09-19T03:36:23.796Z,90.48
2017-09-19T03:37:04.375Z,90.77
2017-09-19T03:37:44.932Z,90.44
2017-09-19T03:38:25.504Z,90.16
2017-09-19T03:39:06.066Z,91.11
2017-09-19T03:39:46.651Z,91.02
2017-09-19T03:40:27.203Z,91.49
2017-09-19T03:41:07.747Z,91.39
2017-09-19T03:41:48.309Z,91.97
2017-09-19T03:42:28.858Z,91.78
2017-09-19T03:43:09.412Z,91.68
2017-09-19T03:43:49.979Z,91.49
2017-09-19T03:44:30.485Z,91.49
2017-09-19T03:45:10.986Z,91.3
2017-09-19T03:45:51.519Z,91.25
2017-09-19T03:46:32.100Z,91.06
2017-09-19T03:47:12.630Z,90.77
2017-09-19T03:47:53.149Z,91.02
2017-09-19T03:48:33.673Z,91.25
2017-09-19T03:49:14.203Z,90.67
2017-09-19T03:49:54.721Z,90.77
2017-09-19T03:50:35.342Z,91.06
2017-09-19T03:51:15.858Z,91.11
2017-09-19T03:51:56.407Z,90.73
2017-09-19T03:52:36.952Z,90.82
2017-09-19T03:53:17.524Z,91.2
2017-09-19T03:53:58.037Z,90.92
2017-09-19T03:54:38.565Z,90.92
2017-09-19T03:55:19.157Z,90.92
2017-09-19T03:55:59.675Z,91.11
2017-09-19T03:56:40.179Z,91.11
2017-09-19T03:57:20.739Z,90.39
2017-09-19T03:58:01.298Z,90.44
2017-09-19T03:58:41.829Z,90.44
2017-09-19T03:59:22.366Z,90.44
2017-09-19T04:00:02.925Z,90.58
2017-09-19T04:00:43.440Z,90.48
2017-09-19T04:01:23.992Z,90.25
2017-09-19T04:02:04.529Z,90.58
2017-09-19T04:02:45.157Z,91.16
2017-09-19T04:03:25.640Z,90.39
2017-09-19T04:04:06.173Z,90.25
2017-09-19T04:04:46.746Z,90.34
2017-09-19T04:05:27.215Z,90.82
2017-09-19T04:06:07.755Z,90.34
2017-09-19T04:06:48.264Z,91.39
2017-09-19T04:07:28.814Z,91.3
2017-09-19T04:08:09.319Z,91.78
2017-09-19T04:08:49.917Z,91.68
2017-09-19T04:09:30.432Z,91.78
2017-09-19T04:10:10.953Z,92.07
2017-09-19T04:10:51.504Z,91.78
2017-09-19T04:11:32.025Z,91.88
2017-09-19T04:12:12.552Z,91.39
2017-09-19T04:12:53.150Z,91.97
2017-09-19T04:13:33.822Z,91.97
2017-09-19T04:14:14.343Z,91.39
2017-09-19T04:14:54.878Z,91.59
2017-09-19T04:15:35.420Z,91.49
2017-09-19T04:16:15.984Z,91.97
2017-09-19T04:16:56.559Z,91.97
2017-09-19T04:17:37.125Z,91.68
2017-09-19T04:18:17.666Z,91.39
2017-09-19T04:18:58.208Z,91.68
2017-09-19T04:19:38.780Z,91.59
2017-09-19T04:20:19.355Z,91.25
2017-09-19T04:20:59.904Z,90.96
2017-09-19T04:21:40.491Z,90.92
2017-09-19T04:22:21.028Z,91.3
2017-09-19T04:23:01.597Z,91.2
2017-09-19T04:23:42.158Z,91.49
2017-09-19T04:24:22.654Z,91.39
2017-09-19T04:25:03.170Z,91.3
2017-09-19T04:25:43.687Z,91.68
2017-09-19T04:26:24.199Z,91.68
2017-09-19T04:27:04.811Z,91.49
2017-09-19T04:27:45.382Z,91.49
2017-09-19T04:28:25.898Z,91.02
2017-09-19T04:29:06.526Z,91.2
2017-09-19T04:29:47.062Z,91.02
2017-09-19T04:30:27.544Z,91.68
2017-09-19T04:31:11.624Z,91.97
2017-09-19T04:31:52.169Z,91.2
2017-09-19T04:32:32.753Z,91.49
2017-09-19T04:33:13.286Z,91.59
2017-09-19T04:33:53.829Z,91.68
2017-09-19T04:34:34.409Z,91.97
2017-09-19T04:35:14.917Z,91.88
2017-09-19T04:35:55.460Z,91.39
2017-09-19T04:36:36.051Z,91.68
2017-09-19T04:37:16.577Z,91.97
2017-09-19T04:37:57.114Z,91.49
2017-09-19T04:38:37.621Z,91.68
2017-09-19T04:39:18.222Z,91.39
2017-09-19T04:39:58.776Z,91.97
2017-09-19T04:40:39.340Z,91.3
2017-09-19T04:41:19.884Z,91.49
2017-09-19T04:42:00.482Z,91.2
2017-09-19T04:42:41.020Z,91.59
2017-09-19T04:43:21.572Z,91.59
2017-09-19T04:44:02.086Z,91.59
2017-09-19T04:44:42.624Z,92.07
2017-09-19T04:45:23.131Z,91.88
2017-09-19T04:46:03.692Z,91.97
2017-09-19T04:46:44.322Z,92.07
2017-09-19T04:47:24.785Z,91.59
2017-09-19T04:48:05.349Z,92.07
2017-09-19T04:48:45.879Z,92.45
2017-09-19T04:49:26.464Z,92.16
2017-09-19T04:50:07.014Z,92.07
2017-09-19T04:50:47.538Z,91.97
2017-09-19T04:51:28.094Z,92.83
2017-09-19T04:52:08.621Z,92.54
2017-09-19T04:52:49.155Z,92.25
2017-09-19T04:53:29.752Z,92.64
2017-09-19T04:54:10.228Z,92.74
2017-09-19T04:54:50.775Z,92.64
2017-09-19T04:55:31.348Z,92.45
2017-09-19T04:56:11.869Z,92.45
2017-09-19T04:56:52.397Z,92.07
2017-09-19T04:57:33.729Z,92.25
2017-09-19T04:58:13.483Z,91.78
2017-09-19T04:58:54.078Z,91.68
2017-09-19T04:59:34.572Z,91.39
2017-09-19T05:00:15.151Z,91.59
2017-09-19T05:00:55.672Z,92.16
2017-09-19T05:01:36.191Z,91.39
2017-09-19T05:02:16.744Z,91.39
2017-09-19T05:02:57.258Z,91.39
2017-09-19T05:03:37.811Z,91.97
2017-09-19T05:04:18.407Z,91.35
2017-09-19T05:04:59.035Z,91.53
2017-09-19T05:05:39.510Z,91.63
2017-09-19T05:06:20.063Z,91.11
2017-09-19T05:07:00.609Z,91.06
2017-09-19T05:07:41.095Z,91.35
2017-09-19T05:08:21.638Z,91.35
2017-09-19T05:09:02.209Z,91.3
2017-09-19T05:09:42.745Z,91.3
2017-09-19T05:10:23.299Z,91.3
2017-09-19T05:11:03.849Z,91.53
2017-09-19T05:11:44.514Z,91.06
2017-09-19T05:12:25.136Z,90.58
2017-09-19T05:13:05.644Z,90.67
2017-09-19T05:13:46.160Z,90.96
2017-09-19T05:14:26.699Z,90.58
2017-09-19T05:15:07.208Z,90.73
2017-09-19T05:15:47.717Z,91.02
2017-09-19T05:16:28.272Z,91.3
2017-09-19T05:17:08.865Z,91.35
2017-09-19T05:17:49.427Z,91.3
2017-09-19T05:18:30.931Z,91.35
2017-09-19T05:19:11.446Z,91.16
2017-09-19T05:19:51.989Z,91.06
2017-09-19T05:20:32.496Z,90.77
2017-09-19T05:21:13.063Z,91.06
2017-09-19T05:21:53.688Z,90.48
2017-09-19T05:22:34.134Z,90.67
2017-09-19T05:23:14.684Z,90.87
2017-09-19T05:23:55.256Z,90.96
2017-09-19T05:24:35.759Z,90.39
2017-09-19T05:25:16.293Z,90.58
2017-09-19T05:25:56.844Z,90.48
2017-09-19T05:26:39.167Z,90.48
2017-09-19T05:27:19.692Z,90.2
2017-09-19T05:28:00.210Z,90.01
2017-09-19T05:28:40.749Z,90.01
2017-09-19T05:29:21.303Z,90.48
2017-09-19T05:30:01.875Z,90.63
2017-09-19T05:30:42.429Z,91.11
2017-09-19T05:31:22.981Z,90.24
2017-09-19T05:32:03.510Z,90.53
2017-09-19T05:32:44.133Z,91.01
2017-09-19T05:33:24.735Z,90.63
2017-09-19T05:34:05.288Z,90.34
2017-09-19T05:34:45.831Z,90.44
2017-09-19T05:35:26.417Z,91.3
2017-09-19T05:36:06.945Z,91.68
2017-09-19T05:36:47.883Z,92.06
2017-09-19T05:37:28.433Z,91.68
2017-09-19T05:38:08.995Z,91.68
2017-09-19T05:38:49.540Z,91.49
2017-09-19T05:39:30.103Z,91.97
2017-09-19T05:40:10.679Z,91.97
2017-09-19T05:40:51.268Z,91.49
2017-09-19T05:41:31.800Z,91.63
2017-09-19T05:42:12.339Z,91.3
2017-09-19T05:42:52.899Z,91.49
2017-09-19T05:43:33.421Z,90.77
2017-09-19T05:44:14.001Z,90.44
2017-09-19T05:44:54.527Z,89.67
2017-09-19T05:45:35.096Z,90.53
2017-09-19T05:46:15.641Z,90.34
2017-09-19T05:46:56.208Z,89.86
2017-09-19T05:47:36.778Z,90.58
2017-09-19T05:48:17.313Z,90.77
2017-09-19T05:48:57.865Z,89.62
2017-09-19T05:49:38.407Z,90.09
2017-09-19T05:50:18.966Z,90.24
2017-09-19T05:50:59.521Z,90.48
2017-09-19T05:51:40.028Z,90.29
2017-09-19T05:52:20.590Z,89.52
2017-09-19T05:53:01.100Z,89.9
2017-09-19T05:53:41.676Z,90.48
2017-09-19T05:54:22.206Z,89.72
2017-09-19T05:55:02.761Z,89.52
2017-09-19T05:55:43.377Z,89.33
2017-09-19T05:56:23.888Z,89.72
2017-09-19T05:57:04.403Z,89.14
2017-09-19T05:57:45.012Z,89.33
2017-09-19T05:58:25.532Z,88.9
2017-09-19T05:59:06.089Z,89.72
2017-09-19T05:59:46.724Z,90.48
2017-09-19T06:00:27.378Z,90.48
2017-09-19T06:01:07.885Z,90.29
2017-09-19T06:01:48.458Z,99.99
2017-09-19T06:02:29.005Z,99.99
2017-09-19T06:03:09.680Z,99.99
2017-09-19T06:03:50.440Z,99.99
2017-09-19T06:04:31.604Z,99.99
2017-09-19T06:05:12.205Z,99.99
2017-09-19T06:05:52.719Z,99.99
2017-09-19T06:06:33.292Z,99.99
2017-09-19T06:07:13.823Z,99.99
2017-09-19T06:07:54.465Z,99.99
2017-09-19T06:08:35.077Z,99.99
2017-09-19T06:09:15.670Z,99.99
2017-09-19T06:09:56.154Z,99.99
2017-09-19T06:10:36.650Z,99.99
2017-09-19T06:11:17.241Z,99.99
2017-09-19T06:11:57.733Z,99.99
2017-09-19T06:12:38.326Z,99.99
2017-09-19T06:13:18.965Z,98.47
2017-09-19T06:13:59.506Z,95.03
2017-09-19T06:14:40.010Z,94.55
2017-09-19T06:15:20.569Z,93.4
2017-09-19T06:16:01.127Z,93.11
2017-09-19T06:16:41.693Z,92.35
2017-09-19T06:17:22.241Z,90.53
2017-09-19T06:18:02.793Z,89.72
2017-09-19T06:18:43.438Z,91.82
2017-09-19T06:19:23.993Z,94.55
2017-09-19T06:20:04.579Z,99.99
2017-09-19T06:20:45.159Z,99.99
2017-09-19T06:21:25.691Z,99.99
2017-09-19T06:22:06.276Z,99.99
2017-09-19T06:22:47.017Z,99.99
2017-09-19T06:23:27.605Z,99.99
2017-09-19T06:24:08.209Z,98.67
2017-09-19T06:24:48.864Z,99.99
2017-09-19T06:25:29.383Z,99.99
2017-09-19T06:26:09.966Z,99.99
2017-09-19T06:26:50.513Z,99.99
2017-09-19T06:27:31.103Z,99.99
2017-09-19T06:28:11.663Z,99.99
2017-09-19T06:28:52.218Z,99.99
2017-09-19T06:29:32.793Z,99.19
2017-09-19T06:30:13.319Z,99.99
2017-09-19T06:30:53.872Z,99.99
2017-09-19T06:31:34.483Z,99.99
2017-09-19T06:32:15.005Z,99.91
2017-09-19T06:32:55.500Z,96.56
2017-09-19T06:33:36.055Z,92.3
2017-09-19T06:34:16.667Z,91.34
2017-09-19T06:34:57.224Z,90.38
2017-09-19T06:35:37.764Z,89.71
2017-09-19T06:36:18.318Z,89.04
2017-09-19T06:36:58.870Z,88.46
2017-09-19T06:37:39.372Z,87.88
2017-09-19T06:38:19.903Z,87.84
2017-09-19T06:39:00.483Z,87.84
2017-09-19T06:39:40.988Z,86.74
2017-09-19T06:40:21.532Z,86.25
2017-09-19T06:41:02.090Z,86.83
2017-09-19T06:41:42.662Z,87.12
2017-09-19T06:42:23.237Z,87.12
2017-09-19T06:43:03.776Z,86.35
2017-09-19T06:43:44.301Z,86.07
2017-09-19T06:44:24.826Z,86.83
2017-09-19T06:45:05.362Z,86.25
2017-09-19T06:45:45.980Z,92.77
2017-09-19T06:46:26.495Z,93.44
2017-09-19T06:47:07.093Z,93.68
2017-09-19T06:47:47.874Z,94.17
2017-09-19T06:48:28.386Z,95.89
2017-09-19T06:49:08.942Z,97.52
2017-09-19T06:49:49.460Z,96.56
2017-09-19T06:50:30.036Z,90.28
2017-09-19T06:51:10.599Z,88.98
2017-09-19T06:51:51.127Z,86.07
2017-09-19T06:52:31.706Z,85.49
2017-09-19T06:53:12.215Z,87.12
2017-09-19T06:53:52.763Z,86.93
2017-09-19T06:54:33.319Z,87.16
2017-09-19T06:55:13.870Z,86.21
2017-09-19T06:55:54.405Z,85.63
2017-09-19T06:56:34.914Z,85.63
2017-09-19T06:57:15.473Z,86.11
2017-09-19T06:57:56.339Z,85.92
2017-09-19T06:58:37.045Z,86.11
2017-09-19T06:59:17.635Z,86.3
2017-09-19T06:59:58.477Z,86.97
2017-09-19T07:00:39.089Z,92.86
2017-09-19T07:01:19.743Z,94.12
2017-09-19T07:02:00.437Z,95.36
2017-09-19T07:02:40.993Z,96.03
2017-09-19T07:03:21.502Z,94.59
2017-09-19T07:04:02.194Z,93.68
2017-09-19T07:04:42.716Z,94.4
2017-09-19T07:05:23.270Z,90.52
2017-09-19T07:06:03.985Z,99.58
2017-09-19T07:06:44.464Z,93.73
2017-09-19T07:07:24.984Z,95.46
2017-09-19T07:08:05.549Z,96.8
2017-09-19T07:08:46.029Z,96.61
2017-09-19T07:09:26.637Z,99.58
2017-09-19T07:10:07.135Z,99.99
2017-09-19T07:10:47.814Z,99.99
2017-09-19T07:11:28.273Z,99.99
2017-09-19T07:12:08.761Z,99.99
2017-09-19T07:12:49.387Z,99.99
2017-09-19T07:13:29.970Z,99.34
2017-09-19T07:14:10.837Z,99.44
2017-09-19T07:14:51.331Z,99.99
2017-09-19T07:15:31.906Z,99.99
2017-09-19T07:16:12.425Z,99.99
2017-09-19T07:16:52.972Z,97.86
2017-09-19T07:17:33.873Z,94.64
2017-09-19T07:18:14.524Z,89.5
2017-09-19T07:18:55.057Z,87.54
2017-09-19T07:19:35.608Z,87.82
2017-09-19T07:20:16.497Z,86.91
2017-09-19T07:20:57.026Z,93.25
2017-09-19T07:21:37.546Z,99.99
2017-09-19T07:22:18.142Z,99.99
2017-09-19T07:22:58.742Z,99.99
2017-09-19T07:23:39.319Z,99.99
2017-09-19T07:24:19.918Z,99.99
2017-09-19T07:25:00.521Z,99.99
2017-09-19T07:25:41.085Z,99.99
2017-09-19T07:26:21.658Z,99.99
2017-09-19T07:27:02.165Z,99.99
2017-09-19T07:27:42.743Z,99.99
2017-09-19T07:28:23.282Z,99.99
2017-09-19T07:29:03.797Z,99.99
2017-09-19T07:29:44.409Z,99.99
2017-09-19T07:30:24.976Z,99.99
2017-09-19T07:31:05.519Z,99.99
2017-09-19T07:31:46.069Z,99.99
2017-09-19T07:32:26.943Z,99.15
2017-09-19T07:33:07.936Z,95.6
2017-09-19T07:33:48.485Z,95.79
2017-09-19T07:34:29.022Z,91.42
2017-09-19T07:35:09.568Z,91.24
2017-09-19T07:35:50.124Z,89.99
2017-09-19T07:36:30.756Z,86.11
2017-09-19T07:37:11.452Z,86.49
2017-09-19T07:37:51.984Z,88.89
2017-09-19T07:38:32.557Z,88.55
2017-09-19T07:39:13.170Z,88.02
2017-09-19T07:39:53.668Z,88.22
2017-09-19T07:40:34.304Z,89.08
2017-09-19T07:41:14.814Z,88.41
2017-09-19T07:41:55.374Z,88.7
2017-09-19T07:42:35.939Z,88.89
2017-09-19T07:43:16.487Z,87.74
2017-09-19T07:43:57.034Z,88.31
2017-09-19T07:44:37.713Z,88.22
2017-09-19T07:45:18.235Z,87.74
2017-09-19T07:45:58.779Z,88.41
2017-09-19T07:46:39.533Z,88.7
2017-09-19T07:47:20.850Z,89.37
2017-09-19T07:48:04.370Z,88.08
2017-09-19T07:48:44.856Z,94.84
2017-09-19T07:49:25.368Z,99.05
2017-09-19T07:50:05.939Z,99.99
2017-09-19T07:50:46.491Z,98.77
2017-09-19T07:51:27.092Z,99.15
2017-09-19T07:52:07.568Z,99.2
2017-09-19T07:52:48.141Z,98.72
2017-09-19T07:53:28.699Z,98.43
2017-09-19T07:54:09.201Z,99.29
2017-09-19T07:54:49.765Z,97.66
2017-09-19T07:55:30.322Z,94.98
2017-09-19T07:56:10.875Z,97.28
2017-09-19T07:56:51.429Z,96.42
2017-09-19T07:57:31.936Z,92
2017-09-19T07:58:12.424Z,90.56
2017-09-19T07:58:53.004Z,89.03
2017-09-19T07:59:33.522Z,89.51
2017-09-19T08:00:14.231Z,89.22
2017-09-19T08:00:54.761Z,87.78
2017-09-19T08:01:35.303Z,86.44
2017-09-19T08:02:15.873Z,87.45
2017-09-19T08:02:56.394Z,99.99
2017-09-19T08:03:36.924Z,95.55
2017-09-19T08:04:17.446Z,99.99
2017-09-19T08:04:58.081Z,99.99
2017-09-19T08:05:38.623Z,99.99
2017-09-19T08:06:19.212Z,99.99
2017-09-19T08:06:59.857Z,98.86
2017-09-19T08:07:40.279Z,99.05
2017-09-19T08:08:20.942Z,96.75
2017-09-19T08:09:01.486Z,99.99
2017-09-19T08:09:42.026Z,99.99
2017-09-19T08:10:22.657Z,99.99
2017-09-19T08:11:03.226Z,99.87
2017-09-19T08:11:43.745Z,99.2
2017-09-19T08:12:24.245Z,99.99
2017-09-19T08:13:04.795Z,99.99
2017-09-19T08:13:45.373Z,94.78
2017-09-19T08:14:25.978Z,94.07
2017-09-19T08:15:06.452Z,93.49
2017-09-19T08:15:47.014Z,93.77
2017-09-19T08:16:27.541Z,88.31
2017-09-19T08:17:08.075Z,94.54
2017-09-19T08:17:48.628Z,98.1
2017-09-19T08:18:29.169Z,94.83
2017-09-19T08:19:09.715Z,95.98
2017-09-19T08:19:50.210Z,99.99
2017-09-19T08:20:30.818Z,95.79
2017-09-19T08:21:11.367Z,93.3
2017-09-19T08:21:51.860Z,97.57
2017-09-19T08:22:32.459Z,95.26
2017-09-19T08:23:13.033Z,88.93
2017-09-19T08:23:53.560Z,87.77
2017-09-19T08:24:34.106Z,86.24
2017-09-19T08:25:14.672Z,84.8
2017-09-19T08:25:55.268Z,85.18
2017-09-19T08:26:37.295Z,84.89
2017-09-19T08:27:17.897Z,84.41
2017-09-19T08:27:58.521Z,88.54
2017-09-19T08:28:39.123Z,91.71
2017-09-19T08:29:19.642Z,91.71
2017-09-19T08:30:00.362Z,91.9
2017-09-19T08:30:40.846Z,94.69
2017-09-19T08:31:21.392Z,91.9
2017-09-19T08:32:01.957Z,89.98
2017-09-19T08:32:42.488Z,87.68
2017-09-19T08:33:23.205Z,90.46
2017-09-19T08:34:03.781Z,88.16
2017-09-19T08:34:44.325Z,89.12
2017-09-19T08:35:24.856Z,88.25
2017-09-19T08:36:05.360Z,85.18
2017-09-19T08:36:45.896Z,83.84
2017-09-19T08:37:26.424Z,83.07
2017-09-19T08:38:06.969Z,83.45
2017-09-19T08:38:47.554Z,83.26
2017-09-19T08:39:28.108Z,81.72
2017-09-19T08:40:08.633Z,81.78
2017-09-19T08:40:49.152Z,81.68
2017-09-19T08:41:29.695Z,82.07
2017-09-19T08:42:10.260Z,83.8
2017-09-19T08:42:50.765Z,83.22
2017-09-19T08:43:31.366Z,83.41